createdAt,value
2022-12-05T00:00:26.688Z,23.04
2022-12-05T00:01:27.393Z,22.94
2022-12-05T00:02:26.666Z,22.86
2022-12-05T00:03:26.655Z,22.83
2022-12-05T00:04:26.998Z,22.82
2022-12-05T00:05:26.629Z,22.77
2022-12-05T00:06:27.206Z,22.76
2022-12-05T00:07:26.587Z,22.76
2022-12-05T00:08:26.573Z,22.73
2022-12-05T00:09:26.582Z,22.75
2022-12-05T00:10:26.594Z,22.72
2022-12-05T00:11:26.521Z,22.75
2022-12-05T00:12:26.537Z,22.72
2022-12-05T00:13:27.271Z,22.70
2022-12-05T00:14:26.502Z,22.70
2022-12-05T00:15:27.470Z,22.72
2022-12-05T00:16:29.910Z,22.70
2022-12-05T00:17:26.491Z,22.67
2022-12-05T00:18:26.454Z,22.65
2022-12-05T00:19:26.481Z,22.64
2022-12-05T00:20:26.412Z,22.64
2022-12-05T00:21:26.456Z,22.64
2022-12-05T00:22:26.429Z,22.64
2022-12-05T00:23:26.449Z,22.64
2022-12-05T00:24:26.358Z,22.64
2022-12-05T00:25:26.419Z,22.65
2022-12-05T00:26:26.358Z,22.65
2022-12-05T00:27:26.446Z,22.67
2022-12-05T00:28:26.455Z,22.65
2022-12-05T00:29:26.969Z,22.65
2022-12-05T00:30:26.321Z,22.64
2022-12-05T00:31:26.397Z,22.62
2022-12-05T00:32:26.299Z,22.62
2022-12-05T00:33:26.287Z,22.62
2022-12-05T00:34:26.335Z,22.61
2022-12-05T00:35:26.273Z,22.58
2022-12-05T00:36:26.248Z,22.61
2022-12-05T00:37:26.268Z,22.57
2022-12-05T00:38:26.220Z,22.58
2022-12-05T00:39:26.276Z,22.60
2022-12-05T00:40:27.103Z,22.60
2022-12-05T00:41:26.186Z,22.62
2022-12-05T00:42:26.200Z,22.61
2022-12-05T00:43:26.985Z,22.58
2022-12-05T00:44:29.380Z,22.60
2022-12-05T00:45:26.174Z,22.57
2022-12-05T00:46:28.014Z,22.57
2022-12-05T00:47:26.276Z,22.58
2022-12-05T00:48:26.129Z,22.60
2022-12-05T00:49:26.120Z,22.58
2022-12-05T00:50:26.078Z,22.58
2022-12-05T00:51:26.974Z,22.57
2022-12-05T00:52:32.327Z,22.57
2022-12-05T00:53:26.146Z,22.58
2022-12-05T00:54:26.057Z,22.57
2022-12-05T00:55:26.071Z,22.54
2022-12-05T00:56:25.999Z,22.54
2022-12-05T00:57:26.022Z,22.55
2022-12-05T00:58:26.037Z,22.55
2022-12-05T00:59:26.055Z,22.57
2022-12-05T01:00:27.164Z,22.55
2022-12-05T01:01:26.076Z,22.54
2022-12-05T01:02:25.924Z,22.55
2022-12-05T01:03:26.036Z,22.57
2022-12-05T01:04:26.709Z,22.60
2022-12-05T01:05:28.107Z,22.61
2022-12-05T01:06:25.923Z,22.64
2022-12-05T01:07:25.925Z,22.65
2022-12-05T01:08:26.628Z,22.67
2022-12-05T01:09:25.913Z,22.67
2022-12-05T01:10:27.490Z,22.67
2022-12-05T01:11:25.849Z,22.68
2022-12-05T01:12:25.855Z,22.70
2022-12-05T01:13:32.324Z,22.70
2022-12-05T01:14:27.962Z,22.70
2022-12-05T01:15:26.713Z,22.73
2022-12-05T01:16:26.027Z,22.75
2022-12-05T01:17:25.823Z,22.76
2022-12-05T01:18:25.786Z,22.75
2022-12-05T01:19:26.498Z,22.76
2022-12-05T01:20:25.754Z,22.77
2022-12-05T01:21:25.717Z,22.76
2022-12-05T01:22:25.728Z,22.82
2022-12-05T01:23:25.747Z,22.85
2022-12-05T01:24:25.735Z,22.86
2022-12-05T01:25:25.716Z,22.85
2022-12-05T01:26:26.396Z,22.86
2022-12-05T01:27:26.475Z,22.88
2022-12-05T01:28:27.527Z,22.90
2022-12-05T01:29:26.538Z,22.90
2022-12-05T01:30:25.666Z,22.91
2022-12-05T01:31:26.395Z,22.90
2022-12-05T01:32:26.401Z,22.90
2022-12-05T01:33:26.563Z,22.91
2022-12-05T01:34:26.024Z,22.90
2022-12-05T01:35:26.495Z,22.90
2022-12-05T01:36:25.561Z,22.91
2022-12-05T01:37:30.706Z,22.91
2022-12-05T01:38:31.310Z,22.91
2022-12-05T01:39:25.586Z,22.90
2022-12-05T01:40:27.147Z,22.90
2022-12-05T01:41:25.508Z,22.88
2022-12-05T01:42:26.427Z,22.90
2022-12-05T01:43:25.494Z,22.91
2022-12-05T01:44:26.165Z,22.91
2022-12-05T01:45:26.015Z,22.92
2022-12-05T01:46:25.589Z,22.92
2022-12-05T01:47:27.501Z,22.91
2022-12-05T01:48:25.414Z,22.90
2022-12-05T01:49:25.621Z,22.90
2022-12-05T01:50:25.424Z,22.88
2022-12-05T01:51:25.431Z,22.88
2022-12-05T01:52:25.431Z,22.86
2022-12-05T01:53:25.425Z,22.88
2022-12-05T01:54:25.486Z,22.86
2022-12-05T01:55:25.380Z,22.85
2022-12-05T01:56:26.536Z,22.82
2022-12-05T01:57:25.622Z,22.82
2022-12-05T01:58:24.350Z,22.82
2022-12-05T01:59:25.394Z,22.83
2022-12-05T02:00:25.434Z,22.82
2022-12-05T02:01:38.336Z,22.82
2022-12-05T02:02:33.025Z,22.82
2022-12-05T02:03:27.364Z,22.85
2022-12-05T02:04:26.303Z,22.83
2022-12-05T02:05:25.309Z,22.85
2022-12-05T02:06:25.251Z,22.86
2022-12-05T02:07:25.260Z,22.85
2022-12-05T02:08:31.329Z,22.88
2022-12-05T02:09:33.564Z,22.91
2022-12-05T02:10:36.392Z,22.92
2022-12-05T02:11:30.738Z,22.92
2022-12-05T02:12:28.209Z,22.92
2022-12-05T02:13:27.075Z,22.94
2022-12-05T02:14:26.882Z,22.97
2022-12-05T02:15:25.184Z,22.98
2022-12-05T02:16:25.189Z,22.98
2022-12-05T02:17:25.243Z,23.02
2022-12-05T02:18:26.065Z,23.05
2022-12-05T02:19:26.148Z,23.05
2022-12-05T02:20:32.420Z,23.05
2022-12-05T02:21:31.545Z,23.02
2022-12-05T02:22:33.789Z,23.02
2022-12-05T02:23:31.242Z,23.01
2022-12-05T02:24:32.217Z,23.00
2022-12-05T02:25:27.856Z,23.00
2022-12-05T02:26:32.704Z,23.00
2022-12-05T02:27:25.065Z,23.00
2022-12-05T02:28:39.110Z,22.98
2022-12-05T02:29:32.817Z,22.98
2022-12-05T02:30:34.778Z,22.98
2022-12-05T02:31:25.909Z,23.01
2022-12-05T02:32:25.034Z,23.02
2022-12-05T02:33:26.540Z,23.01
2022-12-05T02:34:33.089Z,22.98
2022-12-05T02:35:31.062Z,22.97
2022-12-05T02:36:32.354Z,23.00
2022-12-05T02:37:25.656Z,22.98
2022-12-05T02:38:33.111Z,23.00
2022-12-05T02:39:32.475Z,22.97
2022-12-05T02:40:25.843Z,23.00
2022-12-05T02:41:40.707Z,22.97
2022-12-05T02:42:24.835Z,22.97
2022-12-05T02:43:32.922Z,22.95
2022-12-05T02:44:36.087Z,22.94
2022-12-05T02:45:33.542Z,22.98
2022-12-05T02:46:33.473Z,22.98
2022-12-05T02:47:45.695Z,22.98
2022-12-05T02:48:35.483Z,22.98
2022-12-05T02:49:35.416Z,22.95
2022-12-05T02:50:30.901Z,22.95
2022-12-05T02:51:25.525Z,22.97
2022-12-05T02:52:25.468Z,23.01
2022-12-05T02:53:24.713Z,23.00
2022-12-05T02:54:24.758Z,23.00
2022-12-05T02:55:24.719Z,23.01
2022-12-05T02:56:24.815Z,22.98
2022-12-05T02:57:31.505Z,23.00
2022-12-05T02:58:34.449Z,23.02
2022-12-05T02:59:33.071Z,23.02
2022-12-05T03:00:25.449Z,23.07
2022-12-05T03:01:25.948Z,23.04
2022-12-05T03:02:31.932Z,23.05
2022-12-05T03:03:24.616Z,23.09
2022-12-05T03:04:24.748Z,23.13
2022-12-05T03:05:25.573Z,23.15
2022-12-05T03:06:44.154Z,23.17
2022-12-05T03:07:36.118Z,23.15
2022-12-05T03:11:30.615Z,23.09
2022-12-05T03:12:34.322Z,23.09
2022-12-05T03:13:40.288Z,23.05
2022-12-05T03:14:45.222Z,23.05
2022-12-05T03:15:30.849Z,23.07
2022-12-05T03:16:32.569Z,23.09
2022-12-05T03:17:30.890Z,23.13
2022-12-05T03:18:30.839Z,23.15
2022-12-05T03:19:30.852Z,23.15
2022-12-05T03:20:30.824Z,23.16
2022-12-05T03:21:30.887Z,23.17
2022-12-05T03:22:30.814Z,23.16
2022-12-05T03:23:31.566Z,23.13
2022-12-05T03:24:30.722Z,23.10
2022-12-05T03:25:30.780Z,23.07
2022-12-05T03:26:31.458Z,23.12
2022-12-05T03:27:30.776Z,23.10
2022-12-05T03:28:33.542Z,23.07
2022-12-05T03:29:30.758Z,23.09
2022-12-05T03:30:30.718Z,23.07
2022-12-05T03:31:30.757Z,23.12
2022-12-05T03:32:30.697Z,23.12
2022-12-05T03:33:30.722Z,23.13
2022-12-05T03:34:31.452Z,23.17
2022-12-05T03:35:30.633Z,23.17
2022-12-05T03:36:30.627Z,23.16
2022-12-05T03:37:33.256Z,23.15
2022-12-05T03:38:30.623Z,23.10
2022-12-05T03:39:30.622Z,23.09
2022-12-05T03:40:30.562Z,23.12
2022-12-05T03:41:37.815Z,23.10
2022-12-05T03:42:30.564Z,23.12
2022-12-05T03:43:30.622Z,23.09
2022-12-05T03:44:36.719Z,23.01
2022-12-05T03:45:38.949Z,23.02
2022-12-05T03:46:30.556Z,23.01
2022-12-05T03:47:30.517Z,23.00
2022-12-05T03:48:30.522Z,23.02
2022-12-05T03:49:33.884Z,23.02
2022-12-05T03:50:31.148Z,23.01
2022-12-05T03:51:31.662Z,23.01
2022-12-05T03:52:30.433Z,23.01
2022-12-05T03:53:31.395Z,23.02
2022-12-05T03:54:30.445Z,23.00
2022-12-05T03:55:30.447Z,22.98
2022-12-05T03:56:32.183Z,22.98
2022-12-05T03:57:30.419Z,22.98
2022-12-05T03:58:30.369Z,23.00
2022-12-05T03:59:30.347Z,22.98
2022-12-05T04:00:38.410Z,22.98
2022-12-05T04:01:37.592Z,22.97
2022-12-05T04:04:03.936Z,22.91
2022-12-05T04:05:04.956Z,22.86
2022-12-05T04:06:05.687Z,22.88
2022-12-05T04:07:04.910Z,22.86
2022-12-05T04:08:04.999Z,22.85
2022-12-05T04:09:04.892Z,22.82
2022-12-05T04:10:05.912Z,22.83
2022-12-05T04:11:04.851Z,22.85
2022-12-05T04:12:04.982Z,22.86
2022-12-05T04:13:04.881Z,22.90
2022-12-05T04:14:04.878Z,22.88
2022-12-05T04:15:04.996Z,22.88
2022-12-05T04:16:04.992Z,22.88
2022-12-05T04:17:14.489Z,22.88
2022-12-05T04:18:13.662Z,22.88
2022-12-05T04:19:25.169Z,22.86
2022-12-05T04:20:11.950Z,22.83
2022-12-05T04:21:12.942Z,22.83
2022-12-05T04:22:04.741Z,22.83
2022-12-05T04:23:04.799Z,22.80
2022-12-05T04:24:12.858Z,22.80
2022-12-05T04:25:11.144Z,22.82
2022-12-05T04:26:12.593Z,22.83
2022-12-05T04:27:12.390Z,22.85
2022-12-05T04:28:16.757Z,22.88
2022-12-05T04:31:27.783Z,22.83
2022-12-05T04:32:34.932Z,22.80
2022-12-05T04:33:29.711Z,22.77
2022-12-05T04:34:39.223Z,22.75
2022-12-05T04:35:28.758Z,22.76
2022-12-05T04:36:28.721Z,22.77
2022-12-05T04:37:28.643Z,22.73
2022-12-05T04:38:28.734Z,22.67
2022-12-05T04:39:28.712Z,22.62
2022-12-05T04:40:29.182Z,22.58
2022-12-05T04:41:28.643Z,22.57
2022-12-05T04:42:28.637Z,22.58
2022-12-05T04:43:28.594Z,22.61
2022-12-05T04:44:28.636Z,22.57
2022-12-05T04:45:28.600Z,22.58
2022-12-05T04:46:28.681Z,22.58
2022-12-05T04:47:28.565Z,22.61
2022-12-05T04:48:28.577Z,22.61
2022-12-05T04:49:32.294Z,22.64
2022-12-05T04:50:28.578Z,22.62
2022-12-05T04:51:28.588Z,22.62
2022-12-05T04:52:28.542Z,22.64
2022-12-05T04:53:36.787Z,22.67
2022-12-05T04:54:28.540Z,22.68
2022-12-05T04:55:37.106Z,22.68
2022-12-05T04:56:28.519Z,22.72
2022-12-05T04:57:28.420Z,22.72
2022-12-05T04:58:29.334Z,22.73
2022-12-05T04:59:28.465Z,22.73
2022-12-05T05:00:28.448Z,22.73
2022-12-05T05:01:28.487Z,22.75
2022-12-05T05:02:28.468Z,22.77
2022-12-05T05:03:29.237Z,22.82
2022-12-05T05:04:28.385Z,22.80
2022-12-05T05:05:28.382Z,22.79
2022-12-05T05:06:28.609Z,22.76
2022-12-05T05:07:28.617Z,22.73
2022-12-05T05:08:29.621Z,22.68
2022-12-05T05:09:28.622Z,22.64
2022-12-05T05:10:28.377Z,22.62
2022-12-05T05:11:28.435Z,22.65
2022-12-05T05:12:28.512Z,22.64
2022-12-05T05:13:30.164Z,22.64
2022-12-05T05:14:28.424Z,22.65
2022-12-05T05:15:41.416Z,22.68
2022-12-05T05:16:42.484Z,22.70
2022-12-05T05:17:28.683Z,22.70
2022-12-05T05:18:35.470Z,22.67
2022-12-05T05:19:28.466Z,22.65
2022-12-05T05:20:37.690Z,22.64
2022-12-05T05:21:28.913Z,22.72
2022-12-05T05:22:28.912Z,22.68
2022-12-05T05:23:36.337Z,22.62
2022-12-05T05:24:28.555Z,22.67
2022-12-05T05:25:38.701Z,22.62
2022-12-05T05:26:38.184Z,22.64
2022-12-05T05:27:34.866Z,22.61
2022-12-05T05:28:36.572Z,22.62
2022-12-05T05:29:35.595Z,22.64
2022-12-05T05:30:36.171Z,22.62
2022-12-05T05:31:29.018Z,22.64
2022-12-05T05:32:29.235Z,22.64
2022-12-05T05:33:45.632Z,22.60
2022-12-05T05:34:28.304Z,22.60
2022-12-05T05:36:00.753Z,22.58
2022-12-05T05:36:28.260Z,22.62
2022-12-05T05:37:28.292Z,22.64
2022-12-05T05:38:36.024Z,22.55
2022-12-05T05:39:58.255Z,22.52
2022-12-05T05:40:37.743Z,22.52
2022-12-05T05:41:28.668Z,22.54
2022-12-05T05:42:28.456Z,22.49
2022-12-05T05:44:39.469Z,22.49
2022-12-05T05:45:43.443Z,22.51
2022-12-05T05:46:40.583Z,22.47
2022-12-05T05:47:40.497Z,22.46
2022-12-05T05:48:41.213Z,22.46
2022-12-05T05:49:41.479Z,22.46
2022-12-05T05:50:40.361Z,22.49
2022-12-05T05:51:40.432Z,22.47
2022-12-05T05:52:51.485Z,22.47
2022-12-05T05:53:40.443Z,22.47
2022-12-05T05:54:51.303Z,22.45
2022-12-05T05:55:48.089Z,22.46
2022-12-05T05:56:50.582Z,22.45
2022-12-05T05:57:48.715Z,22.46
2022-12-05T05:58:41.776Z,22.45
2022-12-05T05:59:41.305Z,22.46
2022-12-05T06:00:42.356Z,22.47
2022-12-05T06:01:40.263Z,22.46
2022-12-05T06:02:41.595Z,22.45
2022-12-05T06:03:41.183Z,22.42
2022-12-05T06:04:40.471Z,22.46
2022-12-05T06:05:40.394Z,22.46
2022-12-05T06:06:43.115Z,22.45
2022-12-05T06:07:40.980Z,22.40
2022-12-05T06:08:40.200Z,22.40
2022-12-05T06:09:40.366Z,22.42
2022-12-05T06:10:40.813Z,22.40
2022-12-05T06:11:40.153Z,22.37
2022-12-05T06:12:40.736Z,22.39
2022-12-05T06:13:40.077Z,22.40
2022-12-05T06:14:40.842Z,22.42
2022-12-05T06:15:50.132Z,22.40
2022-12-05T06:16:40.160Z,22.42
2022-12-05T06:17:41.111Z,22.43
2022-12-05T06:18:42.452Z,22.43
2022-12-05T06:19:40.857Z,22.42
2022-12-05T06:20:48.144Z,22.40
2022-12-05T06:21:52.256Z,22.37
2022-12-05T06:22:48.115Z,22.37
2022-12-05T06:23:55.332Z,22.37
2022-12-05T06:24:42.541Z,22.36
2022-12-05T06:26:00.919Z,22.33
2022-12-05T06:26:49.586Z,22.36
2022-12-05T06:27:40.713Z,22.36
2022-12-05T06:28:48.127Z,22.33
2022-12-05T06:29:53.538Z,22.31
2022-12-05T06:30:39.965Z,22.30
2022-12-05T06:31:39.951Z,22.28
2022-12-05T06:32:42.025Z,22.30
2022-12-05T06:33:39.802Z,22.33
2022-12-05T06:34:39.736Z,22.35
2022-12-05T06:35:41.045Z,22.33
2022-12-05T06:36:40.900Z,22.30
2022-12-05T06:37:46.975Z,22.28
2022-12-05T06:38:46.891Z,22.28
2022-12-05T06:39:39.786Z,22.28
2022-12-05T06:40:39.682Z,22.25
2022-12-05T06:41:40.758Z,22.24
2022-12-05T06:42:39.719Z,22.24
2022-12-05T06:43:40.346Z,22.24
2022-12-05T06:44:39.738Z,22.18
2022-12-05T06:45:45.820Z,22.14
2022-12-05T06:46:46.265Z,22.15
2022-12-05T06:47:46.495Z,22.14
2022-12-05T06:48:47.291Z,22.12
2022-12-05T06:49:39.600Z,22.15
2022-12-05T06:50:39.601Z,22.15
2022-12-05T06:51:47.662Z,22.15
2022-12-05T06:52:46.815Z,22.15
2022-12-05T06:53:46.726Z,22.15
2022-12-05T06:54:47.447Z,22.20
2022-12-05T06:55:47.246Z,22.20
2022-12-05T06:56:40.464Z,22.24
2022-12-05T06:57:45.757Z,22.21
2022-12-05T06:58:39.587Z,22.21
2022-12-05T06:59:39.505Z,22.21
2022-12-05T07:00:39.547Z,22.18
2022-12-05T07:01:39.694Z,22.20
2022-12-05T07:02:39.517Z,22.18
2022-12-05T07:03:39.457Z,22.17
2022-12-05T07:04:39.417Z,22.17
2022-12-05T07:05:39.408Z,22.18
2022-12-05T07:06:39.404Z,22.21
2022-12-05T07:07:39.469Z,22.24
2022-12-05T07:08:39.373Z,22.25
2022-12-05T07:09:39.416Z,22.24
2022-12-05T07:10:39.352Z,22.21
2022-12-05T07:11:41.753Z,22.22
2022-12-05T07:12:40.208Z,22.22
2022-12-05T07:13:39.573Z,22.21
2022-12-05T07:14:47.688Z,22.22
2022-12-05T07:15:41.008Z,22.20
2022-12-05T07:16:39.349Z,22.20
2022-12-05T07:17:45.449Z,22.21
2022-12-05T07:18:47.533Z,22.20
2022-12-05T07:19:39.532Z,22.25
2022-12-05T07:21:11.287Z,22.22
2022-12-05T07:21:48.226Z,22.24
2022-12-05T07:22:47.801Z,22.21
2022-12-05T07:23:39.171Z,22.20
2022-12-05T07:24:42.450Z,22.15
2022-12-05T07:25:39.916Z,22.18
2022-12-05T07:26:39.629Z,22.18
2022-12-05T07:27:46.405Z,22.17
2022-12-05T07:28:47.330Z,22.15
2022-12-05T07:29:39.105Z,22.15
2022-12-05T07:30:39.141Z,22.14
2022-12-05T07:31:39.184Z,22.14
2022-12-05T07:32:40.033Z,22.07
2022-12-05T07:33:39.587Z,22.06
2022-12-05T07:34:45.527Z,22.03
2022-12-05T07:35:39.062Z,22.03
2022-12-05T07:36:39.808Z,22.03
2022-12-05T07:37:45.483Z,22.02
2022-12-05T07:38:47.036Z,22.00
2022-12-05T07:39:39.668Z,22.02
2022-12-05T07:40:47.176Z,22.02
2022-12-05T07:41:47.625Z,22.02
2022-12-05T07:42:38.968Z,22.03
2022-12-05T07:43:39.906Z,22.05
2022-12-05T07:44:38.973Z,22.09
2022-12-05T07:45:43.488Z,22.12
2022-12-05T07:46:45.062Z,22.20
2022-12-05T07:47:38.946Z,22.22
2022-12-05T07:48:56.980Z,22.21
2022-12-05T07:49:38.889Z,22.22
2022-12-05T07:50:54.551Z,22.22
2022-12-05T07:51:38.847Z,22.24
2022-12-05T07:52:46.011Z,22.21
2022-12-05T07:53:47.480Z,22.18
2022-12-05T07:54:38.853Z,22.12
2022-12-05T07:55:38.832Z,22.09
2022-12-05T07:56:49.354Z,22.05
2022-12-05T07:57:51.830Z,22.05
2022-12-05T07:58:47.493Z,22.03
2022-12-05T07:59:58.643Z,22.02
2022-12-05T08:00:50.267Z,22.02
2022-12-05T08:01:38.823Z,22.02
2022-12-05T08:02:52.256Z,22.03
2022-12-05T08:03:38.783Z,22.02
2022-12-05T08:04:39.415Z,22.06
2022-12-05T08:05:39.488Z,22.05
2022-12-05T08:06:53.397Z,22.05
2022-12-05T08:07:38.793Z,22.02
2022-12-05T08:08:47.345Z,22.02
2022-12-05T08:09:47.976Z,22.03
2022-12-05T08:10:47.962Z,22.05
2022-12-05T08:11:38.673Z,22.05
2022-12-05T08:12:39.345Z,22.05
2022-12-05T08:13:39.516Z,22.06
2022-12-05T08:15:50.683Z,22.14
2022-12-05T08:16:51.569Z,22.20
2022-12-05T08:17:51.456Z,22.24
2022-12-05T08:18:51.534Z,22.30
2022-12-05T08:19:52.122Z,22.30
2022-12-05T08:21:07.541Z,22.25
2022-12-05T08:21:52.251Z,22.25
2022-12-05T08:22:52.266Z,22.24
2022-12-05T08:23:59.487Z,22.24
2022-12-05T08:24:56.367Z,22.24
2022-12-05T08:25:51.414Z,22.28
2022-12-05T08:26:52.294Z,22.35
2022-12-05T08:27:51.330Z,22.35
2022-12-05T08:29:04.567Z,22.35
2022-12-05T08:29:51.327Z,22.36
2022-12-05T08:30:59.528Z,22.39
2022-12-05T08:31:58.447Z,22.35
2022-12-05T08:33:20.567Z,22.35
2022-12-05T08:33:57.118Z,22.35
2022-12-05T08:34:52.652Z,22.33
2022-12-05T08:36:03.613Z,22.31
2022-12-05T08:36:58.911Z,22.35
2022-12-05T08:37:51.915Z,22.33
2022-12-05T08:38:51.372Z,22.35
2022-12-05T08:39:51.277Z,22.31
2022-12-05T08:40:51.161Z,22.30
2022-12-05T08:41:51.396Z,22.28
2022-12-05T08:42:52.039Z,22.28
2022-12-05T08:43:51.209Z,22.31
2022-12-05T08:44:51.391Z,22.28
2022-12-05T08:45:51.385Z,22.28
2022-12-05T08:46:51.206Z,22.30
2022-12-05T08:47:51.099Z,22.31
2022-12-05T08:48:52.630Z,22.30
2022-12-05T08:49:51.249Z,22.31
2022-12-05T08:50:51.023Z,22.33
2022-12-05T08:51:51.079Z,22.33
2022-12-05T08:52:51.073Z,22.33
2022-12-05T08:55:01.829Z,22.42
2022-12-05T08:56:14.699Z,22.40
2022-12-05T08:57:03.833Z,22.43
2022-12-05T08:58:11.623Z,22.40
2022-12-05T08:59:05.633Z,22.45
2022-12-05T09:00:02.941Z,22.51
2022-12-05T09:01:02.798Z,22.58
2022-12-05T09:02:03.522Z,22.62
2022-12-05T09:03:02.821Z,22.61
2022-12-05T09:04:03.499Z,22.64
2022-12-05T09:05:19.334Z,22.62
2022-12-05T09:07:14.829Z,22.68
2022-12-05T09:08:23.883Z,22.68
2022-12-05T09:09:21.107Z,22.72
2022-12-05T09:10:22.993Z,22.72
2022-12-05T09:11:26.255Z,22.68
2022-12-05T09:12:24.934Z,22.68
2022-12-05T09:13:14.886Z,22.70
2022-12-05T09:14:21.819Z,22.64
2022-12-05T09:15:22.107Z,22.61
2022-12-05T09:16:15.020Z,22.62
2022-12-05T09:17:15.466Z,22.65
2022-12-05T09:18:14.907Z,22.68
2022-12-05T09:19:14.801Z,22.70
2022-12-05T09:20:20.589Z,22.72
2022-12-05T09:21:14.789Z,22.68
2022-12-05T09:22:23.634Z,22.68
2022-12-05T09:23:24.092Z,22.70
2022-12-05T09:27:05.992Z,22.70
2022-12-05T09:28:09.532Z,22.72
2022-12-05T09:29:08.950Z,22.68
2022-12-05T09:30:04.784Z,22.72
2022-12-05T09:31:08.771Z,22.75
2022-12-05T09:32:14.582Z,22.79
2022-12-05T09:33:12.038Z,22.80
2022-12-05T09:34:11.571Z,22.82
2022-12-05T09:35:05.555Z,22.86
2022-12-05T09:36:12.454Z,22.90
2022-12-05T09:37:30.467Z,22.90
2022-12-05T09:38:04.806Z,22.90
2022-12-05T09:39:04.668Z,22.90
2022-12-05T09:40:20.751Z,22.88
2022-12-05T09:41:04.618Z,22.90
2022-12-05T09:42:14.793Z,22.88
2022-12-05T09:43:04.592Z,22.94
2022-12-05T09:44:04.643Z,22.98
2022-12-05T09:45:06.970Z,22.98
2022-12-05T09:46:13.951Z,22.91
2022-12-05T09:47:21.015Z,22.91
2022-12-05T09:48:13.419Z,22.91
2022-12-05T09:49:05.195Z,22.95
2022-12-05T09:50:04.580Z,23.01
2022-12-05T09:51:04.549Z,23.01
2022-12-05T09:52:13.712Z,23.02
2022-12-05T09:53:11.619Z,23.04
2022-12-05T09:54:13.068Z,23.02
2022-12-05T09:55:04.477Z,23.02
2022-12-05T09:56:04.486Z,23.02
2022-12-05T09:57:04.425Z,22.97
2022-12-05T09:58:04.766Z,22.91
2022-12-05T09:59:12.106Z,22.91
2022-12-05T10:00:04.439Z,22.92
2022-12-05T10:01:04.425Z,22.94
2022-12-05T10:02:14.511Z,22.94
2022-12-05T10:03:12.743Z,22.95
2022-12-05T10:04:14.441Z,23.01
2022-12-05T10:05:12.847Z,23.05
2022-12-05T10:06:17.105Z,23.10
2022-12-05T10:07:12.329Z,23.15
2022-12-05T10:08:13.560Z,23.19
2022-12-05T10:09:04.825Z,23.20
2022-12-05T10:10:17.031Z,23.22
2022-12-05T10:11:04.300Z,23.27
2022-12-05T10:12:04.290Z,23.28
2022-12-05T10:13:16.384Z,23.31
2022-12-05T10:14:18.358Z,23.31
2022-12-05T10:15:04.251Z,23.35
2022-12-05T10:16:11.500Z,23.33
2022-12-05T10:17:15.835Z,23.28
2022-12-05T10:18:04.631Z,23.31
2022-12-05T10:19:04.221Z,23.27
2022-12-05T10:20:04.946Z,23.22
2022-12-05T10:21:04.976Z,23.19
2022-12-05T10:22:27.570Z,23.17
2022-12-05T10:23:05.012Z,23.19
2022-12-05T10:24:11.346Z,23.19
2022-12-05T10:25:04.188Z,23.23
2022-12-05T10:26:11.475Z,23.28
2022-12-05T10:27:16.591Z,23.32
2022-12-05T10:28:06.717Z,23.35
2022-12-05T10:29:11.352Z,23.35
2022-12-05T10:30:05.062Z,23.36
2022-12-05T10:31:13.824Z,23.38
2022-12-05T10:33:16.154Z,23.43
2022-12-05T10:34:17.142Z,23.46
2022-12-05T10:35:18.017Z,23.43
2022-12-05T10:36:17.211Z,23.46
2022-12-05T10:37:17.201Z,23.43
2022-12-05T10:38:17.124Z,23.46
2022-12-05T10:39:17.094Z,23.46
2022-12-05T10:40:17.047Z,23.46
2022-12-05T10:41:17.829Z,23.46
2022-12-05T10:42:17.058Z,23.48
2022-12-05T10:43:18.259Z,23.48
2022-12-05T10:44:17.796Z,23.48
2022-12-05T10:45:17.008Z,23.46
2022-12-05T10:46:25.560Z,23.43
2022-12-05T10:47:33.948Z,23.46
2022-12-05T10:48:17.725Z,23.54
2022-12-05T10:49:16.981Z,23.54
2022-12-05T10:50:16.943Z,23.51
2022-12-05T10:51:16.921Z,23.51
2022-12-05T10:52:16.904Z,23.55
2022-12-05T10:53:16.958Z,23.61
2022-12-05T10:54:19.495Z,23.65
2022-12-05T10:55:16.925Z,23.69
2022-12-05T10:56:33.534Z,23.73
2022-12-05T10:57:20.175Z,23.80
2022-12-05T10:58:17.867Z,23.79
2022-12-05T11:05:47.426Z,23.58
2022-12-05T11:06:48.385Z,23.58
2022-12-05T11:07:49.233Z,23.63
2022-12-05T11:09:05.443Z,23.65
2022-12-05T11:09:48.322Z,23.63
2022-12-05T11:10:48.339Z,23.61
2022-12-05T11:11:51.336Z,23.58
2022-12-05T11:12:48.286Z,23.55
2022-12-05T11:13:48.320Z,23.54
2022-12-05T11:20:51.832Z,23.55
2022-12-05T11:21:56.247Z,23.48
2022-12-05T11:22:51.858Z,23.47
2022-12-05T11:23:51.143Z,23.42
2022-12-05T11:24:51.136Z,23.43
2022-12-05T11:25:51.174Z,23.42
2022-12-05T11:26:51.064Z,23.38
2022-12-05T11:27:51.869Z,23.36
2022-12-05T11:28:59.735Z,23.40
2022-12-05T11:29:51.098Z,23.43
2022-12-05T11:30:51.119Z,23.39
2022-12-05T11:31:51.115Z,23.35
2022-12-05T11:32:54.301Z,23.38
2022-12-05T11:33:51.723Z,23.40
2022-12-05T11:34:51.693Z,23.43
2022-12-05T11:35:51.021Z,23.43
2022-12-05T11:36:50.961Z,23.46
2022-12-05T11:37:51.846Z,23.43
2022-12-05T11:38:51.680Z,23.46
2022-12-05T11:39:51.872Z,23.43
2022-12-05T11:40:50.946Z,23.48
2022-12-05T11:41:50.958Z,23.50
2022-12-05T11:42:50.909Z,23.51
2022-12-05T11:43:51.225Z,23.50
2022-12-05T11:44:50.920Z,23.54
2022-12-05T11:45:50.956Z,23.58
2022-12-05T11:46:53.075Z,23.61
2022-12-05T11:47:52.039Z,23.69
2022-12-05T11:48:51.628Z,23.72
2022-12-05T11:49:50.887Z,23.75
2022-12-05T11:50:50.828Z,23.73
2022-12-05T11:51:50.879Z,23.72
2022-12-05T11:52:51.977Z,23.70
2022-12-05T11:53:52.837Z,23.69
2022-12-05T11:55:06.679Z,23.72
2022-12-05T11:55:51.552Z,23.78
2022-12-05T11:56:50.790Z,23.79
2022-12-05T11:57:52.676Z,23.78
2022-12-05T11:58:50.786Z,23.75
2022-12-05T11:59:50.754Z,23.70
2022-12-05T12:00:50.736Z,23.68
2022-12-05T12:01:50.803Z,23.68
2022-12-05T12:02:51.443Z,23.69
2022-12-05T12:03:50.804Z,23.73
2022-12-05T12:04:50.762Z,23.80
2022-12-05T12:05:50.725Z,23.87
2022-12-05T12:07:15.764Z,23.90
2022-12-05T12:07:52.497Z,23.94
2022-12-05T12:08:50.635Z,23.97
2022-12-05T12:09:51.181Z,23.97
2022-12-05T12:10:50.628Z,24.00
2022-12-05T12:11:50.597Z,24.03
2022-12-05T12:12:51.187Z,24.09
2022-12-05T12:13:51.379Z,24.05
2022-12-05T12:15:14.199Z,24.03
2022-12-05T12:15:50.566Z,24.09
2022-12-05T12:16:51.804Z,24.09
2022-12-05T12:17:51.432Z,24.09
2022-12-05T12:18:51.592Z,24.12
2022-12-05T12:19:52.625Z,24.15
2022-12-05T12:20:50.505Z,24.20
2022-12-05T12:21:50.498Z,24.21
2022-12-05T12:22:51.510Z,24.22
2022-12-05T12:23:50.458Z,24.22
2022-12-05T12:24:50.496Z,24.25
2022-12-05T12:25:51.607Z,24.27
2022-12-05T12:26:50.477Z,24.20
2022-12-05T12:27:50.595Z,24.12
2022-12-05T12:28:52.763Z,24.09
2022-12-05T12:29:51.576Z,24.09
2022-12-05T12:30:50.442Z,24.15
2022-12-05T12:31:50.467Z,24.21
2022-12-05T12:32:50.416Z,24.18
2022-12-05T12:33:50.358Z,24.20
2022-12-05T12:34:50.356Z,24.22
2022-12-05T12:35:50.310Z,24.25
2022-12-05T12:36:50.363Z,24.25
2022-12-05T12:37:50.298Z,24.28
2022-12-05T12:38:51.657Z,24.28
2022-12-05T12:39:52.392Z,24.31
2022-12-05T12:40:51.236Z,24.34
2022-12-05T12:41:50.267Z,24.30
2022-12-05T12:42:50.328Z,24.28
2022-12-05T12:43:54.477Z,24.32
2022-12-05T12:44:50.300Z,24.39
2022-12-05T12:45:50.971Z,24.43
2022-12-05T12:46:50.758Z,24.46
2022-12-05T12:47:51.374Z,24.45
2022-12-05T12:48:50.971Z,24.39
2022-12-05T12:49:51.280Z,24.40
2022-12-05T12:50:50.319Z,24.45
2022-12-05T12:51:50.152Z,24.50
2022-12-05T12:52:50.746Z,24.57
2022-12-05T12:53:50.795Z,24.62
2022-12-05T12:55:06.270Z,24.65
2022-12-05T12:55:50.107Z,24.65
2022-12-05T12:56:50.081Z,24.58
2022-12-05T12:57:50.127Z,24.53
2022-12-05T12:58:50.117Z,24.46
2022-12-05T12:59:50.071Z,24.46
2022-12-05T13:00:50.881Z,24.46
2022-12-05T13:01:50.138Z,24.53
2022-12-05T13:02:50.106Z,24.55
2022-12-05T13:03:51.745Z,24.47
2022-12-05T13:04:50.080Z,24.43
2022-12-05T13:05:49.979Z,24.43
2022-12-05T13:06:50.083Z,24.49
2022-12-05T13:07:50.016Z,24.50
2022-12-05T13:08:58.306Z,24.60
2022-12-05T13:09:52.062Z,24.65
2022-12-05T13:10:49.981Z,24.62
2022-12-05T13:11:51.910Z,24.64
2022-12-05T13:12:50.091Z,24.67
2022-12-05T13:13:50.112Z,24.68
2022-12-05T13:16:48.744Z,24.64
2022-12-05T13:17:49.689Z,24.64
2022-12-05T13:18:49.664Z,24.68
2022-12-05T13:19:49.676Z,24.71
2022-12-05T13:20:49.749Z,24.76
2022-12-05T13:21:50.330Z,24.77
2022-12-05T13:22:51.571Z,24.80